Terminal Aerodrome Forecast
Issued by NWS Jackson, MS

Home | Current Version | Previous Version | Text Only | Print | Product List | Glossary On
Versions: 1 2 3 4 5 6 7 8 9 10 11 12 13 14 15 16 17
000
FTUS44 KMEG 011741
TAFTUP
TAF
KTUP 011741Z 0118/0218 21015G23KT P6SM OVC007
      TEMPO 0118/0121 5SM -RA BR
     FM012100 22014G20KT 3SM RA BR OVC007
      TEMPO 0121/0123 TS OVC015CB
     FM020100 28014G20KT P6SM VCSH OVC015
     FM020600 32012G18KT P6SM OVC025=

USA.gov is the U.S. government's official web portal to all federal, state and local government web resources and services.